If you wish to contribute or participate in the discussions about articles you are invited to join SKYbrary as a registered user

 Actions

Guanare Airport

From SKYbrary Wiki

SVGU
Airport
ICAO: SVGU – IATA: GUQ
Summary
Name Guanare Airport
Region South America and Caribbean
Territory Venezuela VE.gif
Location Guanare, Portuguesa
Serving Guanare
Elevation 184.709 m
606 ft184.709 m
Coordinates 9° 1' 40.01" N, 69° 45' 15.01" W
Runways
Designator Length Width Surface ROPS
5/23 1800 m5,905.512 ft
40 m131.234 ft
ASP /


METAR
Observation SVGU 061802Z AUTO 13006KT NCD 33/22 Q1015
Station Guanare
Date/Time 06 June 2020 18:02:00
Wind direction 130°
Wind speed 06 kts
Lowest cloud amount no clouds detected
Temperature 33°C
Dew point 22°C
Humidity 52%
QNH 1015 hPa
Weather condition n/a

Guanare Airport is an airport serving Guanare, the capital of the Portuguesa state in Venezuela.

Climatology

Tropical rainforest climate (Köppen climate classification Aw)

Maps

Terrain

Loading map...

Airport Layout

Loading map...


Accidents & Serious Incidents at or in vicinity of SVGU

None on SKYbrary